Time;durP1;ratioP1;P1;durP2;ratioP2;P2;SDS_P1;SDS_P2;PMS_P1;PMS_P2;Temp;Humidity;BMP_temperature;BMP_pressure;BME280_temperature;BME280_humidity;BME280_pressure;Samples;Min_cycle;Max_cycle;Signal;HPM_P1;HPM_P2
2023/03/31 00:02:22;;;;;;;;;;;;;;;;;;5093461;28;20505;-74
2023/03/31 00:04:51;;;;;;;;;;;;;;;;;;5093688;28;20002;-74
2023/03/31 00:07:16;;;;;;;;;;;;;;;;;;5075294;28;19920;-75
2023/03/31 00:09:44;;;;;;;;;;;;;;;;;;5093402;28;19912;-76
2023/03/31 00:12:10;;;;;;;;;;;;;;;;;;5075084;28;19915;-76
2023/03/31 00:14:35;;;;;;;;;;;;;;;;;;5093612;28;19912;-76
2023/03/31 00:17:03;;;;;;;;;;;;;;;;;;5075487;28;19934;-75
2023/03/31 00:19:28;;;;;;;;;;;;;;;;;;5075463;28;19912;-75
2023/03/31 00:21:53;;;;;;;;;;;;;;;;;;5093356;28;20321;-74
2023/03/31 00:24:19;;;;;;;;;;;;;;;;;;5093157;28;19938;-74
2023/03/31 00:26:44;;;;;;;;;;;;;;;;;;5093017;28;19919;-75
2023/03/31 00:29:10;;;;;;;;;;;;;;;;;;5093250;28;19966;-75
2023/03/31 00:31:35;;;;;;;;;;;;;;;;;;5093251;28;20367;-75
2023/03/31 00:34:00;;;;;;;;;;;;;;;;;;5093067;28;19908;-76
2023/03/31 00:36:28;;;;;;;;;;;;;;;;;;5093178;28;19934;-76
2023/03/31 00:38:55;;;;;;;;;;;;;;;;;;5092880;28;19916;-76
2023/03/31 00:41:20;;;;;;;;;;;;;;;;;;5074692;28;19955;-76
2023/03/31 00:43:45;;;;;;;;;;;;;;;;;;5092880;28;19997;-76
2023/03/31 00:46:14;;;;;;;;;;;;;;;;;;5075008;28;19912;-74
2023/03/31 00:48:39;;;;;;;;;;;;;;;;;;5092984;28;19970;-74
2023/03/31 00:51:06;;;;;;;;;;;;;;;;;;5093060;28;19915;-75
2023/03/31 00:53:31;;;;;;;;;;;;;;;;;;5091746;28;19915;-73
2023/03/31 00:55:56;;;;;;;;;;;;;;;;;;5074451;28;20351;-73
2023/03/31 00:58:26;;;;;;;;;;;;;;;;;;5089212;28;19938;-73
2023/03/31 01:00:52;;;;;;;;;;;;;;;;;;5092584;28;19924;-73
2023/03/31 01:03:18;;;;;;;;;;;;;;;;;;5074664;28;20287;-78
2023/03/31 01:05:43;;;;;;;;;;;;;;;;;;5058134;28;20399;-73
2023/03/31 01:08:08;;;;;;;;;;;;;;;;;;5090099;28;19916;-75
2023/03/31 01:10:37;;;;;;;;;;;;;;;;;;5086798;28;19919;-76
2023/03/31 01:13:02;;;;;;;;;;;;;;;;;;5092733;28;19912;-75
2023/03/31 01:15:28;;;;;;;;;;;;;;;;;;5085145;28;19916;-76
2023/03/31 01:17:56;;;;;;;;;;;;;;;;;;5066869;28;20352;-76
2023/03/31 01:20:21;;;;;;;;;;;;;;;;;;5057993;28;19919;-75
2023/03/31 01:22:48;;;;;;;;;;;;;;;;;;5090087;28;19912;-76
2023/03/31 01:25:13;;;;;;;;;;;;;;;;;;5068181;28;20350;-75
2023/03/31 01:27:38;;;;;;;;;;;;;;;;;;5084777;28;19927;-76
2023/03/31 01:30:04;;;;;;;;;;;;;;;;;;5072998;28;19916;-76
2023/03/31 01:32:29;;;;;;;;;;;;;;;;;;5092420;28;19912;-75
2023/03/31 01:34:54;;;;;;;;;;;;;;;;;;5091069;28;19912;-79
2023/03/31 01:37:20;;;;;;;;;;;;;;;;;;5072065;28;19922;-79
2023/03/31 01:39:45;;;;;;;;;;;;;;;;;;5077754;28;19943;-80
2023/03/31 01:42:11;;;;;;;;;;;;;;;;;;5077845;28;20002;-79
2023/03/31 01:44:38;;;;;;;;;;;;;;;;;;5078407;28;19916;-80
2023/03/31 01:47:04;;;;;;;;;;;;;;;;;;5095626;28;19911;-81
2023/03/31 01:49:29;;;;;;;;;;;;;;;;;;5095754;28;20263;-79
2023/03/31 01:51:54;;;;;;;;;;;;;;;;;;5076879;28;19958;-81
2023/03/31 01:54:20;;;;;;;;;;;;;;;;;;5077632;28;19998;-80
2023/03/31 01:56:45;;;;;;;;;;;;;;;;;;5095622;28;19934;-80
2023/03/31 01:59:11;;;;;;;;;;;;;;;;;;5076614;28;19912;-79
2023/03/31 02:01:37;;;;;;;;;;;;;;;;;;5077507;28;19915;-81
2023/03/31 02:04:02;;;;;;;;;;;;;;;;;;5095490;28;20271;-75
2023/03/31 02:06:28;;;;;;;;;;;;;;;;;;5095532;28;19960;-75
2023/03/31 02:08:53;;;;;;;;;;;;;;;;;;5095341;28;19968;-76
2023/03/31 02:11:18;;;;;;;;;;;;;;;;;;5076339;28;19919;-76
2023/03/31 02:13:43;;;;;;;;;;;;;;;;;;5095275;28;20435;-75
2023/03/31 02:16:09;;;;;;;;;;;;;;;;;;5095394;28;19919;-75
2023/03/31 02:18:37;;;;;;;;;;;;;;;;;;5095400;28;19969;-76
2023/03/31 02:21:02;;;;;;;;;;;;;;;;;;5077179;28;19912;-76
2023/03/31 02:23:30;;;;;;;;;;;;;;;;;;5095096;28;20283;-76
2023/03/31 02:25:55;;;;;;;;;;;;;;;;;;5076995;28;19912;-76
2023/03/31 02:28:21;;;;;;;;;;;;;;;;;;5077335;28;19927;-75
2023/03/31 02:30:46;;;;;;;;;;;;;;;;;;5076043;28;20420;-76
2023/03/31 02:33:11;;;;;;;;;;;;;;;;;;5077067;28;19912;-76
2023/03/31 02:35:37;;;;;;;;;;;;;;;;;;5095533;28;19946;-76
2023/03/31 02:38:05;;;;;;;;;;;;;;;;;;5076174;28;19912;-77
2023/03/31 02:40:30;;;;;;;;;;;;;;;;;;5094590;28;19955;-76
2023/03/31 02:42:57;;;;;;;;;;;;;;;;;;5076553;28;19912;-77
2023/03/31 02:45:22;;;;;;;;;;;;;;;;;;5095186;28;19969;-76
2023/03/31 02:47:48;;;;;;;;;;;;;;;;;;5094525;28;20002;-76
2023/03/31 02:50:13;;;;;;;;;;;;;;;;;;5073529;28;20390;-76
2023/03/31 02:52:38;;;;;;;;;;;;;;;;;;5088789;28;19912;-75
2023/03/31 02:55:03;;;;;;;;;;;;;;;;;;5092816;28;20072;-76
2023/03/31 02:57:29;;;;;;;;;;;;;;;;;;5067787;28;19916;-76
2023/03/31 02:59:54;;;;;;;;;;;;;;;;;;5056473;28;20381;-75
2023/03/31 03:02:19;;;;;;;;;;;;;;;;;;5039523;28;19923;-75
2023/03/31 03:04:48;;;;;;;;;;;;;;;;;;5072700;28;19908;-76
2023/03/31 03:07:13;;;;;;;;;;;;;;;;;;5072250;28;19920;-75
2023/03/31 03:09:39;;;;;;;;;;;;;;;;;;5071044;28;20019;-76
2023/03/31 03:12:04;;;;;;;;;;;;;;;;;;5056189;28;20351;-76
2023/03/31 03:14:30;;;;;;;;;;;;;;;;;;5072213;28;19912;-76
2023/03/31 03:16:55;;;;;;;;;;;;;;;;;;5090512;28;20388;-76
2023/03/31 03:19:20;;;;;;;;;;;;;;;;;;5055667;28;20038;-76
2023/03/31 03:21:46;;;;;;;;;;;;;;;;;;5091057;28;20704;-77
2023/03/31 03:24:11;;;;;;;;;;;;;;;;;;5055520;28;20003;-76
2023/03/31 03:26:36;;;;;;;;;;;;;;;;;;5090454;28;19916;-75
2023/03/31 03:29:02;;;;;;;;;;;;;;;;;;5084550;28;19916;-76
2023/03/31 03:31:27;;;;;;;;;;;;;;;;;;5070296;28;19923;-77
2023/03/31 03:33:52;;;;;;;;;;;;;;;;;;5070498;28;20355;-76
2023/03/31 03:36:18;;;;;;;;;;;;;;;;;;5070555;28;19935;-77
2023/03/31 03:38:43;;;;;;;;;;;;;;;;;;5070172;28;20045;-77
2023/03/31 03:41:09;;;;;;;;;;;;;;;;;;5082252;28;19912;-76
2023/03/31 03:43:34;;;;;;;;;;;;;;;;;;5090036;28;19912;-76
2023/03/31 03:45:59;;;;;;;;;;;;;;;;;;5090159;28;19955;-77
2023/03/31 03:48:25;;;;;;;;;;;;;;;;;;5090191;28;19922;-76
2023/03/31 03:50:52;;;;;;;;;;;;;;;;;;5072166;28;19965;-77
2023/03/31 03:53:17;;;;;;;;;;;;;;;;;;5071725;28;20013;-77
2023/03/31 03:55:43;;;;;;;;;;;;;;;;;;5071791;28;19933;-77
2023/03/31 03:58:09;;;;;;;;;;;;;;;;;;5071201;28;19912;-77
2023/03/31 04:00:34;;;;;;;;;;;;;;;;;;5087570;28;20168;-77
2023/03/31 04:03:00;;;;;;;;;;;;;;;;;;5071505;28;20105;-77
2023/03/31 04:05:25;;;;;;;;;;;;;;;;;;5071453;28;20408;-76
2023/03/31 04:07:51;;;;;;;;;;;;;;;;;;5071685;28;19916;-76
2023/03/31 04:10:16;;;;;;;;;;;;;;;;;;5089497;28;19991;-76
2023/03/31 04:12:41;;;;;;;;;;;;;;;;;;5053751;28;20017;-77
2023/03/31 04:15:07;;;;;;;;;;;;;;;;;;5089784;28;20014;-76
2023/03/31 04:17:33;;;;;;;;;;;;;;;;;;5089441;28;19916;-77
2023/03/31 04:20:00;;;;;;;;;;;;;;;;;;5089654;28;19912;-76
2023/03/31 04:22:28;;;;;;;;;;;;;;;;;;5089533;28;20625;-76
2023/03/31 04:24:57;;;;;;;;;;;;;;;;;;5071497;28;19915;-77
2023/03/31 04:27:26;;;;;;;;;;;;;;;;;;5070103;28;19919;-76
2023/03/31 04:29:53;;;;;;;;;;;;;;;;;;5071408;28;20006;-76
2023/03/31 04:32:20;;;;;;;;;;;;;;;;;;5089356;28;19926;-76
2023/03/31 04:34:46;;;;;;;;;;;;;;;;;;5087521;28;19951;-76
2023/03/31 04:37:11;;;;;;;;;;;;;;;;;;5088959;28;19996;-76
2023/03/31 04:39:36;;;;;;;;;;;;;;;;;;5088692;28;19926;-76
2023/03/31 04:42:01;;;;;;;;;;;;;;;;;;5069558;28;19916;-76
2023/03/31 04:44:27;;;;;;;;;;;;;;;;;;5071351;28;19912;-76
2023/03/31 04:46:52;;;;;;;;;;;;;;;;;;5087024;28;19923;-76
2023/03/31 04:49:17;;;;;;;;;;;;;;;;;;5088578;28;19929;-76
2023/03/31 04:51:43;;;;;;;;;;;;;;;;;;5071167;28;19916;-76
2023/03/31 04:54:09;;;;;;;;;;;;;;;;;;5088577;28;19930;-76
2023/03/31 04:56:34;;;;;;;;;;;;;;;;;;5068757;28;19919;-77
2023/03/31 04:58:59;;;;;;;;;;;;;;;;;;5046899;28;19919;-77
2023/03/31 05:01:24;;;;;;;;;;;;;;;;;;5074976;28;20352;-78
2023/03/31 05:03:50;;;;;;;;;;;;;;;;;;5081773;28;19912;-76
2023/03/31 05:06:15;;;;;;;;;;;;;;;;;;5088823;28;19911;-75
2023/03/31 05:08:41;;;;;;;;;;;;;;;;;;5070086;28;19957;-75
2023/03/31 05:11:06;;;;;;;;;;;;;;;;;;5078831;28;19912;-76
2023/03/31 05:13:31;;;;;;;;;;;;;;;;;;5067196;28;20080;-78
2023/03/31 05:15:57;;;;;;;;;;;;;;;;;;5056887;28;19912;-78
2023/03/31 05:18:22;;;;;;;;;;;;;;;;;;5073616;28;19919;-75
2023/03/31 05:20:47;;;;;;;;;;;;;;;;;;5083921;28;20261;-79
2023/03/31 05:23:12;;;;;;;;;;;;;;;;;;5067297;28;19908;-79
2023/03/31 05:25:38;;;;;;;;;;;;;;;;;;5091112;28;19956;-78
2023/03/31 05:28:03;;;;;;;;;;;;;;;;;;5054486;28;19946;-79
2023/03/31 05:30:29;;;;;;;;;;;;;;;;;;5081927;28;19993;-78
2023/03/31 05:32:54;;;;;;;;;;;;;;;;;;5085757;28;19919;-79
2023/03/31 05:35:20;;;;;;;;;;;;;;;;;;5056940;28;19908;-79
2023/03/31 05:37:45;;;;;;;;;;;;;;;;;;5092187;28;20359;-86
2023/03/31 05:40:10;;;;;;;;;;;;;;;;;;5092013;28;19908;-76
2023/03/31 05:42:35;;;;;;;;;;;;;;;;;;5092950;28;20423;-76
2023/03/31 05:45:01;;;;;;;;;;;;;;;;;;5058178;28;20313;-77
2023/03/31 05:47:26;;;;;;;;;;;;;;;;;;5056803;28;19930;-77
2023/03/31 05:49:52;;;;;;;;;;;;;;;;;;5083731;28;20417;-76
2023/03/31 05:52:17;;;;;;;;;;;;;;;;;;5092330;28;19916;-77
2023/03/31 05:54:43;;;;;;;;;;;;;;;;;;5091768;28;19908;-77
2023/03/31 05:57:08;;;;;;;;;;;;;;;;;;5071330;28;19965;-76
2023/03/31 05:59:34;;;;;;;;;;;;;;;;;;5055406;28;19920;-77
2023/03/31 06:02:00;;;;;;;;;;;;;;;;;;5081867;28;19966;-79
2023/03/31 06:04:26;;;;;;;;;;;;;;;;;;5071573;28;20366;-79
2023/03/31 06:06:52;;;;;;;;;;;;;;;;;;5075805;28;19912;-78
2023/03/31 06:09:18;;;;;;;;;;;;;;;;;;5089748;28;19915;-79
2023/03/31 06:11:43;;;;;;;;;;;;;;;;;;5091060;28;19930;-79
2023/03/31 06:14:08;;;;;;;;;;;;;;;;;;5090990;28;19912;-79
2023/03/31 06:16:34;;;;;;;;;;;;;;;;;;5073037;28;20352;-79
2023/03/31 06:18:59;;;;;;;;;;;;;;;;;;5087936;28;19911;-80
2023/03/31 06:21:24;;;;;;;;;;;;;;;;;;5089193;28;19923;-79
2023/03/31 06:23:53;;;;;;;;;;;;;;;;;;5090546;28;19919;-77
2023/03/31 06:26:19;;;;;;;;;;;;;;;;;;5090000;28;19908;-78
2023/03/31 06:28:44;;;;;;;;;;;;;;;;;;5077161;28;19921;-76
2023/03/31 06:31:11;;;;;;;;;;;;;;;;;;5052746;28;19912;-77
2023/03/31 06:33:36;;;;;;;;;;;;;;;;;;5052367;28;19920;-76
2023/03/31 06:36:04;;;;;;;;;;;;;;;;;;5081740;28;19908;-78
2023/03/31 06:38:29;;;;;;;;;;;;;;;;;;5090590;28;20363;-77
2023/03/31 06:40:54;;;;;;;;;;;;;;;;;;5091166;28;19915;-78
2023/03/31 06:43:20;;;;;;;;;;;;;;;;;;5072027;28;19923;-80
2023/03/31 06:45:45;;;;;;;;;;;;;;;;;;5090958;28;19911;-79
2023/03/31 06:48:10;;;;;;;;;;;;;;;;;;5090122;28;19920;-79
2023/03/31 06:50:35;;;;;;;;;;;;;;;;;;5090498;28;20227;-78
2023/03/31 06:53:01;;;;;;;;;;;;;;;;;;5088148;28;19930;-74
2023/03/31 06:55:26;;;;;;;;;;;;;;;;;;5080606;28;19912;-75
2023/03/31 06:57:51;;;;;;;;;;;;;;;;;;5087789;28;20015;-75
2023/03/31 07:00:17;;;;;;;;;;;;;;;;;;5088273;28;20273;-74
2023/03/31 07:02:42;;;;;;;;;;;;;;;;;;5088297;28;20355;-75
2023/03/31 07:05:07;;;;;;;;;;;;;;;;;;5088237;28;20278;-75
2023/03/31 07:07:33;;;;;;;;;;;;;;;;;;5069271;28;19928;-74
2023/03/31 07:09:58;;;;;;;;;;;;;;;;;;5088034;28;19920;-74
2023/03/31 07:12:24;;;;;;;;;;;;;;;;;;5077627;28;20594;-73
2023/03/31 07:14:49;;;;;;;;;;;;;;;;;;5083920;28;19912;-75
2023/03/31 07:17:14;;;;;;;;;;;;;;;;;;5074600;28;19916;-74
2023/03/31 07:19:40;;;;;;;;;;;;;;;;;;5068008;28;19912;-74
2023/03/31 07:22:06;;;;;;;;;;;;;;;;;;5082885;28;19922;-73
2023/03/31 07:24:31;;;;;;;;;;;;;;;;;;5086684;28;20589;-73
2023/03/31 07:26:56;;;;;;;;;;;;;;;;;;5081496;28;19961;-74
2023/03/31 07:29:22;;;;;;;;;;;;;;;;;;5086790;28;20360;-74
2023/03/31 07:31:47;;;;;;;;;;;;;;;;;;5087651;28;19916;-73
2023/03/31 07:34:12;;;;;;;;;;;;;;;;;;5085734;28;19916;-74
2023/03/31 07:36:38;;;;;;;;;;;;;;;;;;5087839;28;20337;-75
2023/03/31 07:39:03;;;;;;;;;;;;;;;;;;5081477;28;20363;-74
2023/03/31 07:41:28;;;;;;;;;;;;;;;;;;5081112;28;19916;-75
2023/03/31 07:43:54;;;;;;;;;;;;;;;;;;5080419;28;19912;-74
2023/03/31 07:46:19;;;;;;;;;;;;;;;;;;5069170;28;19998;-70
2023/03/31 07:48:45;;;;;;;;;;;;;;;;;;5085285;28;19920;-74
2023/03/31 07:51:10;;;;;;;;;;;;;;;;;;5086667;28;19923;-74
2023/03/31 07:53:35;;;;;;;;;;;;;;;;;;5085675;28;20645;-74
2023/03/31 07:56:01;;;;;;;;;;;;;;;;;;5086157;28;19964;-72
2023/03/31 07:58:27;;;;;;;;;;;;;;;;;;5069507;28;20334;-74
2023/03/31 08:00:52;;;;;;;;;;;;;;;;;;5077977;28;20011;-73
2023/03/31 08:03:17;;;;;;;;;;;;;;;;;;5055944;28;19967;-73
2023/03/31 08:05:42;;;;;;;;;;;;;;;;;;5054616;28;19920;-74
2023/03/31 08:08:08;;;;;;;;;;;;;;;;;;5083126;28;19959;-73
2023/03/31 08:10:33;;;;;;;;;;;;;;;;;;5071917;28;19962;-72
2023/03/31 08:12:58;;;;;;;;;;;;;;;;;;5078800;28;19926;-73
2023/03/31 08:15:23;;;;;;;;;;;;;;;;;;5075695;28;19920;-73
2023/03/31 08:17:49;;;;;;;;;;;;;;;;;;5066115;28;19994;-74
2023/03/31 08:20:14;;;;;;;;;;;;;;;;;;5052219;28;20662;-74
2023/03/31 08:22:39;;;;;;;;;;;;;;;;;;5065598;28;20015;-73
2023/03/31 08:25:05;;;;;;;;;;;;;;;;;;5083290;28;20010;-73
2023/03/31 08:27:30;;;;;;;;;;;;;;;;;;5086905;28;20456;-73
2023/03/31 08:29:55;;;;;;;;;;;;;;;;;;5082072;28;19916;-73
2023/03/31 08:32:21;;;;;;;;;;;;;;;;;;5079991;28;19912;-73
2023/03/31 08:34:46;;;;;;;;;;;;;;;;;;5073698;28;19919;-73
2023/03/31 08:37:11;;;;;;;;;;;;;;;;;;5054073;28;19946;-73
2023/03/31 08:39:37;;;;;;;;;;;;;;;;;;5081790;28;19961;-74
2023/03/31 08:42:02;;;;;;;;;;;;;;;;;;5082457;28;19912;-73
2023/03/31 08:44:27;;;;;;;;;;;;;;;;;;5083612;28;20563;-73
2023/03/31 08:46:53;;;;;;;;;;;;;;;;;;5085552;28;19912;-73
2023/03/31 08:49:18;;;;;;;;;;;;;;;;;;5065124;28;19959;-73
2023/03/31 08:51:43;;;;;;;;;;;;;;;;;;5058611;28;19916;-73
2023/03/31 08:54:08;;;;;;;;;;;;;;;;;;5076713;28;19912;-73
2023/03/31 08:56:38;;;;;;;;;;;;;;;;;;5065931;28;19912;-72
2023/03/31 08:59:03;;;;;;;;;;;;;;;;;;5065964;28;19913;-73
2023/03/31 09:01:28;;;;;;;;;;;;;;;;;;5069771;28;19919;-73
2023/03/31 09:03:54;;;;;;;;;;;;;;;;;;5064772;28;19912;-73
2023/03/31 09:06:19;;;;;;;;;;;;;;;;;;5084678;28;20370;-74
2023/03/31 09:08:44;;;;;;;;;;;;;;;;;;5085553;28;20004;-73
2023/03/31 09:11:13;;;;;;;;;;;;;;;;;;5085862;28;19912;-73
2023/03/31 09:13:38;;;;;;;;;;;;;;;;;;5078228;28;19923;-73
2023/03/31 09:16:04;;;;;;;;;;;;;;;;;;5084939;28;19916;-73
2023/03/31 09:18:29;;;;;;;;;;;;;;;;;;5079686;28;19919;-73
2023/03/31 09:20:55;;;;;;;;;;;;;;;;;;5073926;28;19938;-73
2023/03/31 09:23:20;;;;;;;;;;;;;;;;;;5061276;28;19920;-73
2023/03/31 09:25:45;;;;;;;;;;;;;;;;;;5086493;28;19923;-74
2023/03/31 09:28:10;;;;;;;;;;;;;;;;;;5083731;28;19920;-75
2023/03/31 09:30:36;;;;;;;;;;;;;;;;;;5063301;28;20006;-74
2023/03/31 09:33:01;;;;;;;;;;;;;;;;;;5065881;28;19968;-74
2023/03/31 09:35:27;;;;;;;;;;;;;;;;;;5071067;28;20519;-74
2023/03/31 09:37:53;;;;;;;;;;;;;;;;;;5056815;28;19938;-74
2023/03/31 09:40:18;;;;;;;;;;;;;;;;;;5070964;28;19913;-73
2023/03/31 09:42:43;;;;;;;;;;;;;;;;;;5079469;28;20302;-74
2023/03/31 09:45:09;;;;;;;;;;;;;;;;;;5084345;28;20354;-74
2023/03/31 09:47:37;;;;;;;;;;;;;;;;;;5074983;28;19920;-73
2023/03/31 09:50:03;;;;;;;;;;;;;;;;;;5067552;28;19919;-74
2023/03/31 09:52:28;;;;;;;;;;;;;;;;;;5084940;28;19921;-74
2023/03/31 09:54:53;;;;;;;;;;;;;;;;;;5085341;28;19978;-74
2023/03/31 09:57:19;;;;;;;;;;;;;;;;;;5087091;28;19925;-74
2023/03/31 09:59:45;;;;;;;;;;;;;;;;;;5054349;28;20404;-74
2023/03/31 10:02:10;;;;;;;;;;;;;;;;;;5071145;28;20006;-74
2023/03/31 10:04:35;;;;;;;;;;;;;;;;;;5089021;28;20535;-74
2023/03/31 10:07:01;;;;;;;;;;;;;;;;;;5088204;28;19916;-74
2023/03/31 10:09:26;;;;;;;;;;;;;;;;;;5069725;28;19922;-74
2023/03/31 10:11:51;;;;;;;;;;;;;;;;;;5089375;28;20014;-74
2023/03/31 10:14:16;;;;;;;;;;;;;;;;;;5088448;28;19980;-75
2023/03/31 10:16:42;;;;;;;;;;;;;;;;;;5088248;28;20359;-73
2023/03/31 10:19:07;;;;;;;;;;;;;;;;;;5088846;28;19923;-73
2023/03/31 10:21:32;;;;;;;;;;;;;;;;;;5088920;28;19912;-74
2023/03/31 10:23:57;;;;;;;;;;;;;;;;;;5089157;28;19908;-73
2023/03/31 10:26:23;;;;;;;;;;;;;;;;;;5087815;28;19927;-74
2023/03/31 10:28:49;;;;;;;;;;;;;;;;;;5088403;28;20491;-74
2023/03/31 10:31:14;;;;;;;;;;;;;;;;;;5087991;28;19916;-74
2023/03/31 10:33:40;;;;;;;;;;;;;;;;;;5088926;28;19920;-74
2023/03/31 10:36:05;;;;;;;;;;;;;;;;;;5070360;28;19937;-73
2023/03/31 10:38:31;;;;;;;;;;;;;;;;;;5088407;28;19923;-74
2023/03/31 10:40:57;;;;;;;;;;;;;;;;;;5062773;28;19923;-73
2023/03/31 10:43:22;;;;;;;;;;;;;;;;;;5085570;28;19912;-73
2023/03/31 10:45:47;;;;;;;;;;;;;;;;;;5087388;28;19916;-73
2023/03/31 10:48:13;;;;;;;;;;;;;;;;;;5087837;28;20016;-73
2023/03/31 10:50:38;;;;;;;;;;;;;;;;;;5086976;28;19939;-73
2023/03/31 10:53:03;;;;;;;;;;;;;;;;;;5077970;28;19947;-74
2023/03/31 10:55:28;;;;;;;;;;;;;;;;;;5082518;28;19908;-73
2023/03/31 10:57:54;;;;;;;;;;;;;;;;;;5088487;28;19912;-73
2023/03/31 11:00:20;;;;;;;;;;;;;;;;;;5088286;28;20298;-73
2023/03/31 11:02:47;;;;;;;;;;;;;;;;;;5088302;28;19912;-73
2023/03/31 11:05:12;;;;;;;;;;;;;;;;;;5070285;28;19923;-74
2023/03/31 11:07:37;;;;;;;;;;;;;;;;;;5087026;28;19915;-73
2023/03/31 11:10:02;;;;;;;;;;;;;;;;;;5088549;28;19920;-73
2023/03/31 11:12:28;;;;;;;;;;;;;;;;;;5088043;28;19908;-73
2023/03/31 11:14:53;;;;;;;;;;;;;;;;;;5087472;28;19919;-73
2023/03/31 11:17:18;;;;;;;;;;;;;;;;;;5087051;28;20526;-73
2023/03/31 11:19:43;;;;;;;;;;;;;;;;;;5088038;28;19922;-73
2023/03/31 11:22:09;;;;;;;;;;;;;;;;;;5088659;28;20329;-73
2023/03/31 11:24:34;;;;;;;;;;;;;;;;;;5087720;28;19910;-73
2023/03/31 11:27:00;;;;;;;;;;;;;;;;;;5088156;28;20428;-74
2023/03/31 11:29:25;;;;;;;;;;;;;;;;;;5086471;28;20367;-73
2023/03/31 11:31:51;;;;;;;;;;;;;;;;;;5086456;28;19923;-73
2023/03/31 11:34:16;;;;;;;;;;;;;;;;;;5078254;28;20423;-73
2023/03/31 11:36:42;;;;;;;;;;;;;;;;;;5068301;28;19915;-73
2023/03/31 11:39:08;;;;;;;;;;;;;;;;;;5086770;28;19977;-73
2023/03/31 11:41:34;;;;;;;;;;;;;;;;;;5087511;28;20010;-73
2023/03/31 11:44:01;;;;;;;;;;;;;;;;;;5087435;28;20011;-74
2023/03/31 11:46:26;;;;;;;;;;;;;;;;;;5089062;28;19947;-73
2023/03/31 11:48:52;;;;;;;;;;;;;;;;;;5089093;28;19966;-73
2023/03/31 11:51:17;;;;;;;;;;;;;;;;;;5089116;28;19916;-73
2023/03/31 11:54:51;;;;;;;0.30;0.30;;;;;;;;;;5086872;27;20850;-73
2023/03/31 11:57:23;;;;;;;0.20;0.20;;;;;;;;;;4960984;28;1503184;-74
2023/03/31 11:59:53;;;;;;;3.80;1.63;;;;;;;;;;5008718;28;20070;-73
2023/03/31 12:02:22;;;;;;;0.15;0.15;;;;;;;;;;5022871;28;20352;-73
2023/03/31 12:04:55;;;;;;;0.20;0.20;;;;;;;;;;5011853;28;20052;-73
2023/03/31 12:07:21;;;;;;;0.20;0.20;;;;;;;;;;5019536;28;20329;-73
2023/03/31 12:10:05;;;;;;;0.70;0.55;;;;;;;;;;5012515;28;20105;-73
2023/03/31 12:12:33;;;;;;;0.70;0.43;;;;;;;;;;5021883;28;20076;-74
2023/03/31 12:15:17;;;;;;;0.20;0.20;;;;;;;;;;5016019;28;20068;-74
2023/03/31 12:17:45;;;;;;;0.28;0.28;;;;;;;;;;5022640;28;20033;-74
2023/03/31 12:20:20;;;;;;;0.20;0.20;;;;;;;;;;5018662;28;20382;-73
2023/03/31 12:22:47;;;;;;;0.52;0.52;;;;;;;;;;5008658;28;20022;-74
2023/03/31 12:25:14;;;;;;;1.98;1.25;;;;;;;;;;5022005;28;20033;-74
2023/03/31 12:27:43;;;;;;;0.50;0.50;;;;;;;;;;4995344;28;20370;-73
2023/03/31 12:30:15;;;;;;;1.45;0.60;;;;;;;;;;5004879;28;20030;-72
2023/03/31 12:32:48;;;;;;;0.20;0.20;;;;;;;;;;5017133;28;20060;-74
2023/03/31 12:35:20;;;;;;;0.30;0.30;;;;;;;;;;5016360;28;20030;-74
2023/03/31 12:37:48;;;;;;;0.43;0.38;;;;;;;;;;5012565;28;20108;-73
2023/03/31 12:40:29;;;;;;;0.52;0.50;;;;;;;;;;5017218;28;20038;-74
2023/03/31 12:43:13;;;;;;;0.30;0.30;;;;;;;;;;5012759;28;20033;-74
2023/03/31 12:45:45;;;;;;;8.55;2.30;;;;;;;;;;5016486;28;20048;-73
2023/03/31 12:48:32;;;;;;;1.55;0.32;;;;;;;;;;5010089;28;20564;-73
2023/03/31 12:51:08;;;;;;;0.20;0.20;;;;;;;;;;5022978;28;20036;-74
2023/03/31 12:53:37;;;;;;;0.22;0.22;;;;;;;;;;5011815;28;20118;-75
2023/03/31 12:56:02;;;;;;;5.95;0.85;;;;;;;;;;5017395;28;20054;-74
2023/03/31 12:58:28;;;;;;;0.65;0.55;;;;;;;;;;5001987;28;20463;-74
2023/03/31 13:00:53;;;;;;;1.83;1.45;;;;;;;;;;5000204;28;20037;-74
2023/03/31 13:03:34;;;;;;;0.40;0.40;;;;;;;;;;4982579;28;20037;-74
2023/03/31 13:06:00;;;;;;;0.73;0.63;;;;;;;;;;4985491;28;20060;-74
2023/03/31 13:08:45;;;;;;;11.00;0.60;;;;;;;;;;4989299;28;20038;-74
2023/03/31 13:11:10;;;;;;;0.68;0.30;;;;;;;;;;4988424;28;20077;-74
2023/03/31 13:13:39;;;;;;;0.60;0.50;;;;;;;;;;4989199;28;20038;-74
2023/03/31 13:16:05;;;;;;;0.20;0.20;;;;;;;;;;4989250;28;20033;-74
2023/03/31 13:18:32;;;;;;;2.40;0.65;;;;;;;;;;4989027;28;20481;-74
2023/03/31 13:20:58;;;;;;;0.68;0.60;;;;;;;;;;4988429;28;20495;-74
2023/03/31 13:23:24;;;;;;;5.30;1.42;;;;;;;;;;4989671;28;20026;-73
2023/03/31 13:25:53;;;;;;;0.30;0.30;;;;;;;;;;4989227;28;20111;-73
2023/03/31 13:28:21;;;;;;;0.10;0.10;;;;;;;;;;4984424;28;20025;-73
2023/03/31 13:30:56;;;;;;;3.47;1.75;;;;;;;;;;4981859;28;20029;-73
2023/03/31 13:33:42;;;;;;;0.20;0.20;;;;;;;;;;4980292;28;20031;-73
2023/03/31 13:36:16;;;;;;;0.35;0.25;;;;;;;;;;4982973;28;20381;-73
2023/03/31 13:38:51;;;;;;;6.70;1.75;;;;;;;;;;4990306;28;20440;-74
2023/03/31 13:41:20;;;;;;;0.95;0.68;;;;;;;;;;4985893;28;20023;-77
2023/03/31 13:43:58;;;;;;;6.20;3.43;;;;;;;;;;4978601;28;20066;-76
2023/03/31 13:46:39;;;;;;;0.40;0.40;;;;;;;;;;4977385;28;20035;-77
2023/03/31 13:49:10;;;;;;;0.43;0.43;;;;;;;;;;4986458;28;20038;-76
2023/03/31 13:51:42;;;;;;;0.30;0.30;;;;;;;;;;4989083;28;20061;-77
2023/03/31 13:54:26;;;;;;;0.68;0.60;;;;;;;;;;4989737;28;20101;-77
2023/03/31 13:57:10;;;;;;;4.43;0.68;;;;;;;;;;4994908;28;20484;-76
2023/03/31 13:59:42;;;;;;;2.58;2.47;;;;;;;;;;5007147;28;20111;-77
2023/03/31 14:02:16;;;;;;;1.60;0.77;;;;;;;;;;5008587;28;20109;-76
2023/03/31 14:04:41;;;;;;;0.30;0.30;;;;;;;;;;5008068;28;20052;-76
2023/03/31 14:07:08;;;;;;;1.27;1.02;;;;;;;;;;5007628;28;20022;-75
2023/03/31 14:09:35;;;;;;;1.55;1.00;;;;;;;;;;4989943;28;20465;-75
2023/03/31 14:12:17;;;;;;;0.20;0.20;;;;;;;;;;5009623;28;20076;-76
2023/03/31 14:14:42;;;;;;;0.50;0.50;;;;;;;;;;5009724;28;20077;-76
2023/03/31 14:17:10;;;;;;;0.20;0.20;;;;;;;;;;5006462;28;20044;-78
2023/03/31 14:19:35;;;;;;;3.67;2.05;;;;;;;;;;5009522;28;20084;-78
2023/03/31 14:22:18;;;;;;;0.30;0.30;;;;;;;;;;5010097;28;20018;-77
2023/03/31 14:24:48;;;;;;;1.45;0.75;;;;;;;;;;4993966;28;20804;-75
2023/03/31 14:27:20;;;;;;;0.40;0.30;;;;;;;;;;5009670;28;20574;-77
2023/03/31 14:30:01;;;;;;;0.45;0.45;;;;;;;;;;5011908;28;20026;-77
2023/03/31 14:32:36;;;;;;;0.57;0.57;;;;;;;;;;5010986;28;20073;-77
2023/03/31 14:35:02;;;;;;;0.13;0.13;;;;;;;;;;5011054;28;20115;-76
2023/03/31 14:37:28;;;;;;;0.28;0.28;;;;;;;;;;5010080;28;20103;-77
2023/03/31 14:39:56;;;;;;;1.40;1.33;;;;;;;;;;5010813;28;20108;-76
2023/03/31 14:42:41;;;;;;;0.63;0.30;;;;;;;;;;5009759;28;20076;-75
2023/03/31 14:45:15;;;;;;;0.20;0.20;;;;;;;;;;5008006;28;20366;-75
2023/03/31 14:47:40;;;;;;;0.20;0.20;;;;;;;;;;4990782;28;20038;-75
2023/03/31 14:50:12;;;;;;;0.20;0.20;;;;;;;;;;5008577;28;20033;-75
2023/03/31 14:52:37;;;;;;;0.63;0.50;;;;;;;;;;5008455;28;20476;-75
2023/03/31 14:55:03;;;;;;;0.60;0.40;;;;;;;;;;5007328;28;20041;-75
2023/03/31 14:57:34;;;;;;;0.20;0.20;;;;;;;;;;4989405;28;20046;-75
2023/03/31 15:00:01;;;;;;;0.25;0.25;;;;;;;;;;5007267;28;20091;-75
2023/03/31 15:02:31;;;;;;;2.05;0.38;;;;;;;;;;4990571;28;20440;-76
2023/03/31 15:04:57;;;;;;;0.63;0.63;;;;;;;;;;5008524;28;20018;-75
2023/03/31 15:07:22;;;;;;;1.73;0.57;;;;;;;;;;5008126;28;20029;-75
2023/03/31 15:09:49;;;;;;;1.52;0.55;;;;;;;;;;5008548;28;20034;-75
2023/03/31 15:12:16;;;;;;;0.40;0.40;;;;;;;;;;5008546;28;20036;-75
2023/03/31 15:14:44;;;;;;;1.08;0.98;;;;;;;;;;4991126;28;20037;-75
2023/03/31 15:17:36;;;;;;;0.63;0.45;;;;;;;;;;5008689;28;20026;-75
2023/03/31 15:20:19;;;;;;;11.27;1.08;;;;;;;;;;5006361;28;20077;-75
2023/03/31 15:22:45;;;;;;;0.65;0.63;;;;;;;;;;5009232;28;20048;-77
2023/03/31 15:25:12;;;;;;;1.58;0.70;;;;;;;;;;5009863;28;20480;-76
2023/03/31 15:27:48;;;;;;;0.30;0.30;;;;;;;;;;5008548;28;20017;-76
2023/03/31 15:30:16;;;;;;;11.18;1.05;;;;;;;;;;5010226;28;20030;-76
2023/03/31 15:32:42;;;;;;;0.22;0.22;;;;;;;;;;5008500;28;20080;-76
2023/03/31 15:35:15;;;;;;;46.20;2.97;;;;;;;;;;5009841;28;20437;-76
2023/03/31 15:37:42;;;;;;;1.02;0.75;;;;;;;;;;5010118;28;20451;-75
2023/03/31 15:40:24;;;;;;;0.45;0.40;;;;;;;;;;5009903;28;20018;-76
2023/03/31 15:42:53;;;;;;;5.38;1.35;;;;;;;;;;4992361;28;20033;-76
2023/03/31 15:45:22;;;;;;;0.30;0.30;;;;;;;;;;5009629;28;20026;-76
2023/03/31 15:47:49;;;;;;;0.27;0.27;;;;;;;;;;5009640;28;20496;-76
2023/03/31 15:50:15;;;;;;;0.43;0.35;;;;;;;;;;5008409;28;20041;-76
2023/03/31 15:52:54;;;;;;;3.13;0.45;;;;;;;;;;5006656;28;20046;-75
2023/03/31 15:55:52;;;;;;;0.60;0.60;;;;;;;;;;5007638;28;20034;-76
2023/03/31 15:58:18;;;;;;;1.35;0.98;;;;;;;;;;4964222;28;20088;-76
2023/03/31 16:00:45;;;;;;;0.40;0.40;;;;;;;;;;5008281;28;20037;-74
2023/03/31 16:03:22;;;;;;;0.20;0.20;;;;;;;;;;5007297;28;20026;-76
2023/03/31 16:05:50;;;;;;;0.45;0.40;;;;;;;;;;4990166;28;20555;-76
2023/03/31 16:08:18;;;;;;;0.25;0.25;;;;;;;;;;5006572;28;20117;-75
2023/03/31 16:10:44;;;;;;;0.20;0.20;;;;;;;;;;5008009;28;20053;-75